createdAt,value
2018-01-29T00:00:41.751Z,7.42
2018-01-29T00:01:41.797Z,7.41
2018-01-29T00:02:41.230Z,7.41
2018-01-29T00:03:41.625Z,7.42
2018-01-29T00:04:41.091Z,7.42
2018-01-29T00:05:42.111Z,7.43
2018-01-29T00:06:41.790Z,7.42
2018-01-29T00:07:41.441Z,7.44
2018-01-29T00:08:41.327Z,7.46
2018-01-29T00:09:41.429Z,7.44
2018-01-29T00:10:42.151Z,7.46
2018-01-29T00:11:41.959Z,7.44
2018-01-29T00:12:40.981Z,7.45
2018-01-29T00:13:40.775Z,7.46
2018-01-29T00:14:40.732Z,7.45
2018-01-29T00:15:40.803Z,7.45
2018-01-29T00:16:41.065Z,7.47
2018-01-29T00:17:42.175Z,7.47
2018-01-29T00:18:42.185Z,7.47
2018-01-29T00:19:42.212Z,7.46
2018-01-29T00:20:41.237Z,7.46
2018-01-29T00:21:41.236Z,7.45
2018-01-29T00:22:40.978Z,7.46
2018-01-29T00:23:41.826Z,7.46
2018-01-29T00:24:41.528Z,7.47
2018-01-29T00:25:41.854Z,7.47
2018-01-29T00:26:40.603Z,7.44
2018-01-29T00:27:41.234Z,7.46
2018-01-29T00:28:41.615Z,7.45
2018-01-29T00:29:41.518Z,7.46
2018-01-29T00:30:40.339Z,7.45
2018-01-29T00:31:40.751Z,7.44
2018-01-29T00:32:39.592Z,7.44
2018-01-29T00:33:41.168Z,7.45
2018-01-29T00:34:39.601Z,7.45
2018-01-29T00:35:40.443Z,7.44
2018-01-29T00:36:41.178Z,7.44
2018-01-29T00:37:41.012Z,7.45
2018-01-29T00:38:41.050Z,7.45
2018-01-29T00:39:41.066Z,7.45
2018-01-29T00:40:41.633Z,7.44
2018-01-29T00:41:41.313Z,7.43
2018-01-29T00:42:41.467Z,7.44
2018-01-29T00:43:39.805Z,7.46
2018-01-29T00:44:41.244Z,7.45
2018-01-29T00:45:42.970Z,7.45
2018-01-29T00:46:42.755Z,7.44
2018-01-29T00:47:39.483Z,7.45
2018-01-29T00:48:41.066Z,7.44
2018-01-29T00:49:41.181Z,7.44
2018-01-29T00:50:41.018Z,7.44
2018-01-29T00:51:41.547Z,7.44
2018-01-29T00:52:40.070Z,7.46
2018-01-29T00:53:40.093Z,7.44
2018-01-29T00:54:41.339Z,7.44
2018-01-29T00:55:39.764Z,7.44
2018-01-29T00:56:41.471Z,7.43
2018-01-29T00:57:39.761Z,7.43
2018-01-29T00:58:39.780Z,7.42
2018-01-29T00:59:42.413Z,7.43
2018-01-29T01:00:40.178Z,7.45
2018-01-29T01:01:41.628Z,7.42
2018-01-29T01:02:39.848Z,7.42
2018-01-29T01:03:39.278Z,7.42
2018-01-29T01:04:40.165Z,7.42
2018-01-29T01:05:42.013Z,7.44
2018-01-29T01:06:39.540Z,7.42
2018-01-29T01:07:40.676Z,7.43
2018-01-29T01:08:39.586Z,7.43
2018-01-29T01:09:39.535Z,7.42
2018-01-29T01:10:40.070Z,7.43
2018-01-29T01:11:40.242Z,7.42
2018-01-29T01:12:39.547Z,7.41
2018-01-29T01:13:40.299Z,7.41
2018-01-29T01:14:40.550Z,7.41
2018-01-29T01:15:40.242Z,7.43
2018-01-29T01:16:39.441Z,7.4
2018-01-29T01:17:42.413Z,7.42
2018-01-29T01:18:39.361Z,7.41
2018-01-29T01:19:42.703Z,7.42
2018-01-29T01:20:40.407Z,7.41
2018-01-29T01:21:40.887Z,7.41
2018-01-29T01:22:40.991Z,7.41
2018-01-29T01:23:41.352Z,7.41
2018-01-29T01:24:40.080Z,7.42
2018-01-29T01:25:41.590Z,7.42
2018-01-29T01:26:43.662Z,7.39
2018-01-29T01:27:41.740Z,7.41
2018-01-29T01:28:40.674Z,7.41
2018-01-29T01:29:40.120Z,7.41
2018-01-29T01:30:41.504Z,7.39
2018-01-29T01:31:40.893Z,7.4
2018-01-29T01:32:40.166Z,7.41
2018-01-29T01:33:40.212Z,7.4
2018-01-29T01:34:39.346Z,7.39
2018-01-29T01:35:40.267Z,7.4
2018-01-29T01:36:41.674Z,7.4
2018-01-29T01:37:41.178Z,7.41
2018-01-29T01:38:40.897Z,7.4
2018-01-29T01:39:39.688Z,7.41
2018-01-29T01:40:40.506Z,7.41
2018-01-29T01:41:41.733Z,7.38
2018-01-29T01:42:43.120Z,7.41
2018-01-29T01:43:41.046Z,7.39
2018-01-29T01:44:40.476Z,7.39
2018-01-29T01:45:40.400Z,7.41
2018-01-29T01:46:39.851Z,7.4
2018-01-29T01:47:40.847Z,7.42
2018-01-29T01:48:40.569Z,7.41
2018-01-29T01:49:39.724Z,7.41
2018-01-29T01:50:40.242Z,7.42
2018-01-29T01:51:39.514Z,7.41
2018-01-29T01:52:41.195Z,7.42
2018-01-29T01:53:39.700Z,7.41
2018-01-29T01:54:40.144Z,7.44
2018-01-29T01:55:40.161Z,7.41
2018-01-29T01:56:39.555Z,7.43
2018-01-29T01:57:40.013Z,7.43
2018-01-29T01:58:39.675Z,7.43
2018-01-29T01:59:40.892Z,7.44
2018-01-29T02:00:39.810Z,7.44
2018-01-29T02:01:41.409Z,7.44
2018-01-29T02:02:40.506Z,7.44
2018-01-29T02:03:41.390Z,7.45
2018-01-29T02:04:41.169Z,7.45
2018-01-29T02:05:39.651Z,7.45
2018-01-29T02:06:40.284Z,7.44
2018-01-29T02:07:39.421Z,7.46
2018-01-29T02:08:40.545Z,7.46
2018-01-29T02:09:40.388Z,7.46
2018-01-29T02:10:39.570Z,7.47
2018-01-29T02:11:40.291Z,7.47
2018-01-29T02:12:45.769Z,7.48
2018-01-29T02:13:41.747Z,7.48
2018-01-29T02:14:42.638Z,7.48
2018-01-29T02:15:41.702Z,7.49
2018-01-29T02:16:40.890Z,7.49
2018-01-29T02:17:41.498Z,7.5
2018-01-29T02:18:40.343Z,7.5
2018-01-29T02:19:41.022Z,7.5
2018-01-29T02:20:42.113Z,7.49
2018-01-29T02:21:40.535Z,7.5
2018-01-29T02:22:41.118Z,7.52
2018-01-29T02:23:41.920Z,7.51
2018-01-29T02:24:41.030Z,7.49
2018-01-29T02:25:40.841Z,7.51
2018-01-29T02:26:43.352Z,7.52
2018-01-29T02:27:40.232Z,7.51
2018-01-29T02:28:42.469Z,7.51
2018-01-29T02:29:40.350Z,7.49
2018-01-29T02:30:39.918Z,7.51
2018-01-29T02:31:39.719Z,7.5
2018-01-29T02:32:40.742Z,7.52
2018-01-29T02:33:39.772Z,7.51
2018-01-29T02:34:42.750Z,7.52
2018-01-29T02:35:40.363Z,7.51
2018-01-29T02:36:41.630Z,7.53
2018-01-29T02:37:40.764Z,7.52
2018-01-29T02:38:39.620Z,7.5
2018-01-29T02:39:39.744Z,7.52
2018-01-29T02:40:41.173Z,7.51
2018-01-29T02:41:41.840Z,7.51
2018-01-29T02:42:40.595Z,7.51
2018-01-29T02:43:41.484Z,7.51
2018-01-29T02:44:42.486Z,7.51
2018-01-29T02:45:40.896Z,7.51
2018-01-29T02:46:41.427Z,7.51
2018-01-29T02:47:42.867Z,7.5
2018-01-29T02:48:39.648Z,7.51
2018-01-29T02:49:40.620Z,7.5
2018-01-29T02:50:39.634Z,7.51
2018-01-29T02:51:40.334Z,7.52
2018-01-29T02:52:39.878Z,7.51
2018-01-29T02:53:39.815Z,7.5
2018-01-29T02:54:39.922Z,7.52
2018-01-29T02:55:42.383Z,7.52
2018-01-29T02:56:42.624Z,7.51
2018-01-29T02:57:40.729Z,7.51
2018-01-29T02:58:41.387Z,7.5
2018-01-29T02:59:41.135Z,7.52
2018-01-29T03:00:41.348Z,7.5
2018-01-29T03:01:40.977Z,7.52
2018-01-29T03:02:40.363Z,7.53
2018-01-29T03:03:41.512Z,7.51
2018-01-29T03:04:41.242Z,7.51
2018-01-29T03:05:40.527Z,7.54
2018-01-29T03:06:41.841Z,7.53
2018-01-29T03:07:39.740Z,7.51
2018-01-29T03:08:39.436Z,7.52
2018-01-29T03:09:41.399Z,7.52
2018-01-29T03:10:39.841Z,7.52
2018-01-29T03:11:39.553Z,7.53
2018-01-29T03:12:39.670Z,7.53
2018-01-29T03:13:40.549Z,7.51
2018-01-29T03:14:40.084Z,7.52
2018-01-29T03:15:40.809Z,7.52
2018-01-29T03:16:40.778Z,7.51
2018-01-29T03:17:40.422Z,7.51
2018-01-29T03:18:40.412Z,7.52
2018-01-29T03:19:39.748Z,7.54
2018-01-29T03:20:39.794Z,7.52
2018-01-29T03:21:39.875Z,7.52
2018-01-29T03:22:41.588Z,7.52
2018-01-29T03:23:40.445Z,7.54
2018-01-29T03:24:39.742Z,7.53
2018-01-29T03:25:40.100Z,7.53
2018-01-29T03:26:41.631Z,7.55
2018-01-29T03:27:39.775Z,7.53
2018-01-29T03:28:40.734Z,7.53
2018-01-29T03:29:41.175Z,7.53
2018-01-29T03:30:40.085Z,7.55
2018-01-29T03:31:40.318Z,7.56
2018-01-29T03:32:41.301Z,7.53
2018-01-29T03:33:39.836Z,7.54
2018-01-29T03:34:40.375Z,7.54
2018-01-29T03:35:40.812Z,7.54
2018-01-29T03:36:39.892Z,7.55
2018-01-29T03:37:40.670Z,7.55
2018-01-29T03:38:40.997Z,7.54
2018-01-29T03:39:41.803Z,7.54
2018-01-29T03:40:40.715Z,7.54
2018-01-29T03:41:39.570Z,7.54
2018-01-29T03:42:42.952Z,7.56
2018-01-29T03:43:39.599Z,7.54
2018-01-29T03:44:39.524Z,7.55
2018-01-29T03:45:40.734Z,7.55
2018-01-29T03:46:39.458Z,7.56
2018-01-29T03:47:39.614Z,7.55
2018-01-29T03:48:40.023Z,7.56
2018-01-29T03:49:39.840Z,7.54
2018-01-29T03:50:40.732Z,7.55
2018-01-29T03:51:40.657Z,7.56
2018-01-29T03:52:41.312Z,7.55
2018-01-29T03:53:41.841Z,7.56
2018-01-29T03:54:40.441Z,7.57
2018-01-29T03:55:40.250Z,7.57
2018-01-29T03:56:40.630Z,7.56
2018-01-29T03:57:41.188Z,7.57
2018-01-29T03:58:42.371Z,7.58
2018-01-29T03:59:41.458Z,7.57
2018-01-29T04:00:39.920Z,7.58
2018-01-29T04:01:40.924Z,7.58
2018-01-29T04:02:41.431Z,7.57
2018-01-29T04:03:39.886Z,7.58
2018-01-29T04:04:40.236Z,7.56
2018-01-29T04:05:40.695Z,7.56
2018-01-29T04:06:40.698Z,7.57
2018-01-29T04:07:40.592Z,7.57
2018-01-29T04:08:41.207Z,7.57
2018-01-29T04:09:40.797Z,7.58
2018-01-29T04:10:40.784Z,7.58
2018-01-29T04:11:40.542Z,7.57
2018-01-29T04:12:40.475Z,7.57
2018-01-29T04:13:41.097Z,7.58
2018-01-29T04:14:40.400Z,7.58
2018-01-29T04:15:40.394Z,7.58
2018-01-29T04:16:41.323Z,7.57
2018-01-29T04:17:40.633Z,7.57
2018-01-29T04:18:41.336Z,7.56
2018-01-29T04:19:41.206Z,7.56
2018-01-29T04:20:39.977Z,7.55
2018-01-29T04:21:40.007Z,7.54
2018-01-29T04:22:42.140Z,7.55
2018-01-29T04:23:39.855Z,7.54
2018-01-29T04:24:40.558Z,7.55
2018-01-29T04:25:41.099Z,7.53
2018-01-29T04:26:40.480Z,7.56
2018-01-29T04:27:40.458Z,7.54
2018-01-29T04:28:41.359Z,7.54
2018-01-29T04:29:40.963Z,7.54
2018-01-29T04:30:40.674Z,7.54
2018-01-29T04:31:40.991Z,7.54
2018-01-29T04:32:41.229Z,7.54
2018-01-29T04:33:40.590Z,7.53
2018-01-29T04:34:42.579Z,7.52
2018-01-29T04:35:40.182Z,7.53
2018-01-29T04:36:41.109Z,7.53
2018-01-29T04:37:42.020Z,7.53
2018-01-29T04:38:40.374Z,7.53
2018-01-29T04:39:41.671Z,7.51
2018-01-29T04:40:41.956Z,7.52
2018-01-29T04:41:41.685Z,7.5
2018-01-29T04:42:40.672Z,7.52
2018-01-29T04:43:43.379Z,7.51
2018-01-29T04:44:40.147Z,7.5
2018-01-29T04:45:40.515Z,7.52
2018-01-29T04:46:41.169Z,7.5
2018-01-29T04:47:43.553Z,7.51
2018-01-29T04:48:40.423Z,7.51
2018-01-29T04:49:39.950Z,7.51
2018-01-29T04:50:42.082Z,7.51
2018-01-29T04:51:41.236Z,7.49
2018-01-29T04:52:39.750Z,7.5
2018-01-29T04:53:40.787Z,7.5
2018-01-29T04:54:40.976Z,7.5
2018-01-29T04:55:40.363Z,7.51
2018-01-29T04:56:40.728Z,7.5
2018-01-29T04:57:42.563Z,7.51
2018-01-29T04:58:42.636Z,7.5
2018-01-29T04:59:41.416Z,7.49
2018-01-29T05:00:40.703Z,7.49
2018-01-29T05:01:39.929Z,7.51
2018-01-29T05:02:40.081Z,7.5
2018-01-29T05:03:41.195Z,7.5
2018-01-29T05:04:40.667Z,7.5
2018-01-29T05:05:39.991Z,7.51
2018-01-29T05:06:44.800Z,7.51
2018-01-29T05:07:42.893Z,7.5
2018-01-29T05:08:40.454Z,7.5
2018-01-29T05:09:40.018Z,7.5
2018-01-29T05:10:41.496Z,7.49
2018-01-29T05:11:40.464Z,7.5
2018-01-29T05:15:41.298Z,7.49
2018-01-29T05:16:40.833Z,7.5
2018-01-29T05:17:40.668Z,7.5
2018-01-29T05:18:40.446Z,7.49
2018-01-29T05:19:43.348Z,7.48
2018-01-29T05:20:40.826Z,7.48
2018-01-29T05:21:41.134Z,7.5
2018-01-29T05:22:40.357Z,7.48
2018-01-29T05:23:41.427Z,7.49
2018-01-29T05:24:41.415Z,7.49
2018-01-29T05:25:42.691Z,7.49
2018-01-29T05:26:41.854Z,7.49
2018-01-29T05:27:40.391Z,7.5
2018-01-29T05:28:40.460Z,7.52
2018-01-29T05:29:41.205Z,7.5
2018-01-29T05:30:40.193Z,7.5
2018-01-29T05:31:42.150Z,7.5
2018-01-29T05:32:40.388Z,7.49
2018-01-29T05:33:41.742Z,7.49
2018-01-29T05:34:39.937Z,7.49
2018-01-29T05:35:39.894Z,7.49
2018-01-29T05:36:40.598Z,7.51
2018-01-29T05:37:40.992Z,7.49
2018-01-29T05:38:41.329Z,7.5
2018-01-29T05:39:41.781Z,7.51
2018-01-29T05:40:41.248Z,7.5
2018-01-29T05:41:42.154Z,7.51
2018-01-29T05:42:40.479Z,7.5
2018-01-29T05:43:40.581Z,7.5
2018-01-29T05:44:40.088Z,7.5
2018-01-29T05:45:40.242Z,7.49
2018-01-29T05:46:41.344Z,7.49
2018-01-29T05:47:42.122Z,7.49
2018-01-29T05:48:40.105Z,7.49
2018-01-29T05:49:42.483Z,7.49
2018-01-29T05:50:40.847Z,7.48
2018-01-29T05:51:40.945Z,7.49
2018-01-29T05:52:40.823Z,7.49
2018-01-29T05:53:39.883Z,7.5
2018-01-29T05:54:42.188Z,7.48
2018-01-29T05:55:39.960Z,7.49
2018-01-29T05:56:41.451Z,7.48
2018-01-29T05:57:40.245Z,7.48
2018-01-29T05:58:41.693Z,7.48
2018-01-29T06:02:00.726Z,7.49
2018-01-29T06:02:42.088Z,7.49
2018-01-29T06:03:40.463Z,7.49
2018-01-29T06:04:40.739Z,7.49
2018-01-29T06:05:40.410Z,7.48
2018-01-29T06:06:40.634Z,7.49
2018-01-29T06:07:42.005Z,7.48
2018-01-29T06:08:41.379Z,7.49
2018-01-29T06:09:41.192Z,7.5
2018-01-29T06:10:42.695Z,7.49
2018-01-29T06:11:43.476Z,7.48
2018-01-29T06:12:40.622Z,7.48
2018-01-29T06:13:41.324Z,7.47
2018-01-29T06:14:42.906Z,7.48
2018-01-29T06:15:40.314Z,7.5
2018-01-29T06:16:43.951Z,7.48
2018-01-29T06:17:40.709Z,7.47
2018-01-29T06:18:43.669Z,7.47
2018-01-29T06:19:40.496Z,7.48
2018-01-29T06:20:43.046Z,7.48
2018-01-29T06:21:41.848Z,7.48
2018-01-29T06:22:41.649Z,7.5
2018-01-29T06:23:41.054Z,7.47
2018-01-29T06:24:40.944Z,7.47
2018-01-29T06:25:41.841Z,7.48
2018-01-29T06:26:42.861Z,7.47
2018-01-29T06:27:40.592Z,7.46
2018-01-29T06:28:41.751Z,7.48
2018-01-29T06:29:40.488Z,7.46
2018-01-29T06:30:40.434Z,7.45
2018-01-29T06:31:41.609Z,7.46
2018-01-29T06:32:41.845Z,7.46
2018-01-29T06:33:41.179Z,7.45
2018-01-29T06:34:39.466Z,7.47
2018-01-29T06:35:40.800Z,7.47
2018-01-29T06:36:39.436Z,7.47
2018-01-29T06:37:39.582Z,7.45
2018-01-29T06:38:39.853Z,7.46
2018-01-29T06:39:39.489Z,7.47
2018-01-29T06:40:39.459Z,7.46
2018-01-29T06:41:39.330Z,7.47
2018-01-29T06:42:39.607Z,7.46
2018-01-29T06:43:39.636Z,7.46
2018-01-29T06:44:39.374Z,7.46
2018-01-29T06:45:39.404Z,7.47
2018-01-29T06:46:39.414Z,7.47
2018-01-29T06:47:39.549Z,7.46
2018-01-29T06:48:39.363Z,7.48
2018-01-29T06:49:39.412Z,7.47
2018-01-29T06:50:39.522Z,7.48
2018-01-29T06:51:39.601Z,7.48
2018-01-29T06:52:39.600Z,7.47
2018-01-29T06:53:39.681Z,7.47
2018-01-29T06:54:40.152Z,7.47
2018-01-29T06:55:39.593Z,7.47
2018-01-29T06:56:39.625Z,7.48
2018-01-29T06:57:39.570Z,7.48
2018-01-29T06:58:39.715Z,7.48
2018-01-29T06:59:39.584Z,7.48
2018-01-29T07:00:39.630Z,7.47
2018-01-29T07:01:39.608Z,7.49
2018-01-29T07:02:39.603Z,7.49
2018-01-29T07:03:40.011Z,7.49
2018-01-29T07:04:39.729Z,7.49
2018-01-29T07:05:39.706Z,7.48
2018-01-29T07:06:39.873Z,7.48
2018-01-29T07:07:40.004Z,7.5
2018-01-29T07:08:39.892Z,7.49
2018-01-29T07:09:39.796Z,7.49
2018-01-29T07:10:39.647Z,7.49
2018-01-29T07:11:39.820Z,7.5
2018-01-29T07:12:39.823Z,7.5
2018-01-29T07:13:39.862Z,7.5
2018-01-29T07:14:39.690Z,7.49
2018-01-29T07:15:39.670Z,7.52
2018-01-29T07:16:39.746Z,7.5
2018-01-29T07:17:39.774Z,7.5
2018-01-29T07:18:39.882Z,7.51
2018-01-29T07:19:39.859Z,7.52
2018-01-29T07:20:39.901Z,7.52
2018-01-29T07:21:39.776Z,7.52
2018-01-29T07:22:40.184Z,7.53
2018-01-29T07:23:40.098Z,7.52
2018-01-29T07:24:40.237Z,7.53
2018-01-29T07:25:40.214Z,7.53
2018-01-29T07:26:40.106Z,7.55
2018-01-29T07:27:39.791Z,7.52
2018-01-29T07:28:39.797Z,7.54
2018-01-29T07:29:39.587Z,7.52
2018-01-29T07:30:39.872Z,7.54
2018-01-29T07:31:39.792Z,7.55
2018-01-29T07:32:39.694Z,7.55
2018-01-29T07:33:40.096Z,7.53
2018-01-29T07:34:39.914Z,7.55
2018-01-29T07:35:39.865Z,7.54
2018-01-29T07:36:40.062Z,7.55
2018-01-29T07:37:39.935Z,7.56
2018-01-29T07:38:39.830Z,7.57
2018-01-29T07:39:40.051Z,7.57
2018-01-29T07:40:40.022Z,7.57
2018-01-29T07:41:39.691Z,7.56
2018-01-29T07:42:40.241Z,7.55
2018-01-29T07:43:39.993Z,7.55
2018-01-29T07:44:40.153Z,7.58
2018-01-29T07:45:40.127Z,7.57
2018-01-29T07:46:40.144Z,7.56
2018-01-29T07:47:40.006Z,7.54
2018-01-29T07:48:40.231Z,7.55
2018-01-29T07:49:40.152Z,7.54
2018-01-29T07:50:40.252Z,7.56
2018-01-29T07:51:40.272Z,7.56
2018-01-29T07:52:40.242Z,7.57
2018-01-29T07:53:40.322Z,7.55
2018-01-29T07:54:40.204Z,7.56
2018-01-29T07:55:40.324Z,7.56
2018-01-29T07:56:40.230Z,7.56
2018-01-29T07:57:40.134Z,7.57
2018-01-29T07:58:40.136Z,7.57
2018-01-29T07:59:40.053Z,7.59
2018-01-29T08:00:40.062Z,7.58
2018-01-29T08:01:40.134Z,7.57
2018-01-29T08:02:40.073Z,7.56
2018-01-29T08:03:40.247Z,7.56
2018-01-29T08:04:40.138Z,7.56
2018-01-29T08:05:40.186Z,7.57
2018-01-29T08:06:40.092Z,7.57
2018-01-29T08:07:40.222Z,7.59
2018-01-29T08:08:40.117Z,7.58
2018-01-29T08:09:40.258Z,7.59
2018-01-29T08:10:40.373Z,7.58
2018-01-29T08:11:40.445Z,7.6
2018-01-29T08:12:40.180Z,7.6
2018-01-29T08:13:40.125Z,7.59
2018-01-29T08:14:40.105Z,7.59
2018-01-29T08:15:40.178Z,7.58
2018-01-29T08:16:40.120Z,7.57
2018-01-29T08:17:40.077Z,7.59
2018-01-29T08:18:40.172Z,7.58
2018-01-29T08:19:40.052Z,7.61
2018-01-29T08:20:40.130Z,7.59
2018-01-29T08:21:40.167Z,7.61
2018-01-29T08:22:40.209Z,7.6
2018-01-29T08:23:40.218Z,7.62
2018-01-29T08:24:40.077Z,7.6
2018-01-29T08:25:40.098Z,7.6
2018-01-29T08:26:40.110Z,7.61
2018-01-29T08:27:40.246Z,7.62
2018-01-29T08:28:40.345Z,7.63
2018-01-29T08:29:40.006Z,7.62
2018-01-29T08:30:40.141Z,7.64
2018-01-29T08:31:40.286Z,7.63
2018-01-29T08:32:40.189Z,7.64
2018-01-29T08:33:40.448Z,7.63
2018-01-29T08:34:40.179Z,7.64
2018-01-29T08:35:40.221Z,7.67
2018-01-29T08:36:40.407Z,7.66
2018-01-29T08:37:40.147Z,7.66
2018-01-29T08:38:40.202Z,7.65
2018-01-29T08:39:40.141Z,7.65
2018-01-29T08:40:40.220Z,7.63
2018-01-29T08:41:40.227Z,7.63
2018-01-29T08:42:40.127Z,7.65
2018-01-29T08:43:40.388Z,7.64
2018-01-29T08:44:40.147Z,7.62
2018-01-29T08:45:40.260Z,7.64
2018-01-29T08:46:40.144Z,7.61
2018-01-29T08:47:40.166Z,7.63
2018-01-29T08:48:40.299Z,7.64
2018-01-29T08:49:40.152Z,7.64
2018-01-29T08:50:40.196Z,7.63
2018-01-29T08:51:40.128Z,7.62
2018-01-29T08:52:40.713Z,7.64
2018-01-29T08:53:40.293Z,7.63
2018-01-29T08:54:40.267Z,7.64
2018-01-29T08:55:40.239Z,7.65
2018-01-29T08:56:40.220Z,7.62
2018-01-29T08:57:40.303Z,7.62
2018-01-29T08:58:40.440Z,7.63
2018-01-29T08:59:40.300Z,7.61
2018-01-29T09:00:41.205Z,7.63
2018-01-29T09:01:40.144Z,7.6
2018-01-29T09:02:40.193Z,7.63
2018-01-29T09:03:40.270Z,7.62
2018-01-29T09:04:40.191Z,7.62
2018-01-29T09:05:40.670Z,7.62
2018-01-29T09:06:40.528Z,7.61
2018-01-29T09:07:40.592Z,7.61
2018-01-29T09:08:40.121Z,7.57
2018-01-29T09:09:40.228Z,7.6
2018-01-29T09:10:40.711Z,7.59
2018-01-29T09:11:40.337Z,7.6
2018-01-29T09:12:40.355Z,7.6
2018-01-29T09:13:40.204Z,7.58
2018-01-29T09:14:40.265Z,7.58
2018-01-29T09:15:40.270Z,7.57
2018-01-29T09:16:40.395Z,7.58
2018-01-29T09:17:40.352Z,7.59
2018-01-29T09:18:40.393Z,7.59
2018-01-29T09:19:40.165Z,7.58
2018-01-29T09:20:40.154Z,7.58
2018-01-29T09:21:40.322Z,7.57
2018-01-29T09:22:40.340Z,7.6
2018-01-29T09:23:40.205Z,7.59
2018-01-29T09:24:40.308Z,7.59
2018-01-29T09:25:40.329Z,7.6
2018-01-29T09:26:40.135Z,7.59
2018-01-29T09:27:40.368Z,7.58
2018-01-29T09:28:40.316Z,7.6
2018-01-29T09:29:40.354Z,7.59
2018-01-29T09:30:40.280Z,7.6
2018-01-29T09:31:40.368Z,7.6
2018-01-29T09:32:40.361Z,7.61
2018-01-29T09:33:40.483Z,7.59
2018-01-29T09:34:40.270Z,7.6
2018-01-29T09:35:40.324Z,7.61
2018-01-29T09:36:40.356Z,7.61
2018-01-29T09:37:40.481Z,7.61
2018-01-29T09:38:40.992Z,7.62
2018-01-29T09:39:40.427Z,7.61
2018-01-29T09:40:41.358Z,7.62
2018-01-29T09:41:40.736Z,7.63
2018-01-29T09:42:40.995Z,7.62
2018-01-29T09:43:40.577Z,7.62
2018-01-29T09:44:40.903Z,7.62
2018-01-29T09:45:41.337Z,7.61
2018-01-29T09:46:40.311Z,7.62
2018-01-29T09:47:40.150Z,7.63
2018-01-29T09:48:40.273Z,7.64
2018-01-29T09:49:40.483Z,7.64
2018-01-29T09:50:40.276Z,7.65
2018-01-29T09:51:40.819Z,7.65
2018-01-29T09:52:40.364Z,7.64
2018-01-29T09:53:40.704Z,7.64
2018-01-29T09:54:40.360Z,7.64
2018-01-29T09:55:40.368Z,7.65
2018-01-29T09:56:40.745Z,7.64
2018-01-29T09:57:40.742Z,7.67
2018-01-29T09:58:41.087Z,7.65
2018-01-29T09:59:40.309Z,7.66
2018-01-29T10:00:40.472Z,7.67
2018-01-29T10:01:40.780Z,7.66
2018-01-29T10:02:40.282Z,7.65
2018-01-29T10:03:40.532Z,7.66
2018-01-29T10:04:40.290Z,7.65
2018-01-29T10:05:40.176Z,7.67
2018-01-29T10:06:40.323Z,7.66
2018-01-29T10:07:40.270Z,7.67
2018-01-29T10:08:40.155Z,7.68
2018-01-29T10:09:39.968Z,7.65
2018-01-29T10:10:40.192Z,7.65
2018-01-29T10:11:39.910Z,7.66
2018-01-29T10:12:40.131Z,7.66
2018-01-29T10:13:40.072Z,7.65
2018-01-29T10:14:39.990Z,7.65
2018-01-29T10:15:40.091Z,7.65
2018-01-29T10:16:40.142Z,7.65
2018-01-29T10:17:40.242Z,7.64
2018-01-29T10:18:40.270Z,7.65
2018-01-29T10:19:40.141Z,7.64
2018-01-29T10:20:40.402Z,7.64
2018-01-29T10:21:40.247Z,7.65
2018-01-29T10:22:40.288Z,7.63
2018-01-29T10:23:40.294Z,7.63
2018-01-29T10:24:40.327Z,7.65
2018-01-29T10:25:40.231Z,7.64
2018-01-29T10:26:40.195Z,7.64
2018-01-29T10:27:40.330Z,7.64
2018-01-29T10:28:40.119Z,7.65
2018-01-29T10:29:40.163Z,7.67
2018-01-29T10:30:39.979Z,7.67
2018-01-29T10:31:39.985Z,7.66
2018-01-29T10:32:40.311Z,7.66
2018-01-29T10:33:40.210Z,7.65
2018-01-29T10:34:40.198Z,7.64
2018-01-29T10:35:40.397Z,7.65
2018-01-29T10:36:40.045Z,7.64
2018-01-29T10:37:40.092Z,7.64
2018-01-29T10:38:40.162Z,7.67
2018-01-29T10:39:40.294Z,7.66
2018-01-29T10:40:40.102Z,7.68
2018-01-29T10:41:40.122Z,7.66
2018-01-29T10:42:40.384Z,7.67
2018-01-29T10:43:40.284Z,7.68
2018-01-29T10:44:40.259Z,7.67
2018-01-29T10:45:40.272Z,7.69
2018-01-29T10:46:40.316Z,7.67
2018-01-29T10:47:40.382Z,7.66
2018-01-29T10:48:40.217Z,7.68
2018-01-29T10:49:40.645Z,7.69
2018-01-29T10:50:40.320Z,7.68
2018-01-29T10:51:40.280Z,7.66
2018-01-29T10:52:40.049Z,7.67
2018-01-29T10:53:40.382Z,7.67
2018-01-29T10:54:40.245Z,7.68
2018-01-29T10:55:40.277Z,7.66
2018-01-29T10:56:40.113Z,7.67
2018-01-29T11:00:40.656Z,7.67
2018-01-29T11:01:40.239Z,7.67
2018-01-29T11:02:40.349Z,7.68
2018-01-29T11:03:40.674Z,7.67
2018-01-29T11:04:40.463Z,7.69
2018-01-29T11:05:41.045Z,7.69
2018-01-29T11:06:40.358Z,7.67
2018-01-29T11:07:40.468Z,7.65
2018-01-29T11:08:40.348Z,7.66
2018-01-29T11:09:40.675Z,7.65
2018-01-29T11:10:40.742Z,7.67
2018-01-29T11:11:40.504Z,7.67
2018-01-29T11:12:40.217Z,7.67
2018-01-29T11:13:40.478Z,7.65
2018-01-29T11:14:40.974Z,7.64
2018-01-29T11:15:40.508Z,7.65
2018-01-29T11:16:40.553Z,7.65
2018-01-29T11:17:40.493Z,7.66
2018-01-29T11:18:40.439Z,7.67
2018-01-29T11:19:40.540Z,7.64
2018-01-29T11:20:40.343Z,7.67
2018-01-29T11:21:40.479Z,7.68
2018-01-29T11:22:40.336Z,7.69
2018-01-29T11:23:40.417Z,7.67
2018-01-29T11:24:40.499Z,7.66
2018-01-29T11:25:40.315Z,7.66
2018-01-29T11:26:40.483Z,7.67
2018-01-29T11:27:40.657Z,7.64
2018-01-29T11:28:40.336Z,7.65
2018-01-29T11:29:40.583Z,7.64
2018-01-29T11:30:40.378Z,7.66
2018-01-29T11:31:40.574Z,7.66
2018-01-29T11:32:40.422Z,7.64
2018-01-29T11:33:40.714Z,7.65
2018-01-29T11:34:40.697Z,7.69
2018-01-29T11:35:40.398Z,7.68
2018-01-29T11:36:40.437Z,7.66
2018-01-29T11:37:40.331Z,7.65
2018-01-29T11:38:40.501Z,7.66
2018-01-29T11:39:40.489Z,7.63
2018-01-29T11:40:40.284Z,7.63
2018-01-29T11:41:40.298Z,7.64
2018-01-29T11:42:40.549Z,7.62
2018-01-29T11:43:40.676Z,7.62
2018-01-29T11:44:40.554Z,7.64
2018-01-29T11:45:40.480Z,7.65
2018-01-29T11:46:40.599Z,7.64
2018-01-29T11:47:40.685Z,7.6
2018-01-29T11:48:40.750Z,7.62
2018-01-29T11:49:40.697Z,7.64
2018-01-29T11:50:40.426Z,7.64
2018-01-29T11:51:40.586Z,7.64
2018-01-29T11:52:40.627Z,7.65
2018-01-29T11:53:40.529Z,7.66
2018-01-29T11:54:40.689Z,7.65
2018-01-29T11:55:40.290Z,7.66
2018-01-29T11:56:40.373Z,7.65
2018-01-29T11:57:40.260Z,7.65
2018-01-29T11:58:40.617Z,7.64
2018-01-29T12:00:40.258Z,7.66
2018-01-29T12:01:40.275Z,7.66
2018-01-29T12:02:40.581Z,7.65
2018-01-29T12:03:41.249Z,7.67
2018-01-29T12:04:39.660Z,7.67
2018-01-29T12:05:39.754Z,7.66
2018-01-29T12:06:40.259Z,7.68
2018-01-29T12:07:39.579Z,7.69
2018-01-29T12:08:39.782Z,7.68
2018-01-29T12:09:39.754Z,7.66
2018-01-29T12:10:39.835Z,7.67
2018-01-29T12:11:39.707Z,7.67
2018-01-29T12:12:40.046Z,7.67
2018-01-29T12:13:39.579Z,7.66
2018-01-29T12:14:39.676Z,7.68
2018-01-29T12:15:39.901Z,7.68
2018-01-29T12:16:39.610Z,7.69
2018-01-29T12:17:39.944Z,7.69
2018-01-29T12:18:39.933Z,7.69
2018-01-29T12:19:39.733Z,7.68
2018-01-29T12:20:39.782Z,7.68
2018-01-29T12:21:39.818Z,7.69
2018-01-29T12:22:39.794Z,7.69
2018-01-29T12:23:39.839Z,7.7
2018-01-29T12:24:39.726Z,7.71
2018-01-29T12:25:39.739Z,7.72
2018-01-29T12:26:39.781Z,7.71
2018-01-29T12:27:39.751Z,7.72
2018-01-29T12:28:39.761Z,7.72
2018-01-29T12:29:39.651Z,7.72
2018-01-29T12:30:39.750Z,7.7
2018-01-29T12:31:40.043Z,7.71
2018-01-29T12:32:39.690Z,7.73
2018-01-29T12:33:40.283Z,7.73
2018-01-29T12:34:40.043Z,7.74
2018-01-29T12:35:40.201Z,7.71
2018-01-29T12:36:39.955Z,7.73
2018-01-29T12:37:39.956Z,7.73
2018-01-29T12:38:39.823Z,7.75
2018-01-29T12:39:39.939Z,7.75
2018-01-29T12:40:39.840Z,7.74
2018-01-29T12:41:39.843Z,7.75
2018-01-29T12:42:39.858Z,7.74
2018-01-29T12:43:39.849Z,7.74
2018-01-29T12:44:40.070Z,7.76
2018-01-29T12:45:39.825Z,7.78
2018-01-29T12:46:40.231Z,7.8
2018-01-29T12:47:40.283Z,7.79
2018-01-29T12:48:40.008Z,7.8
2018-01-29T12:49:40.156Z,7.79
2018-01-29T12:50:39.973Z,7.79
2018-01-29T12:51:40.366Z,7.79
2018-01-29T12:52:40.077Z,7.79
2018-01-29T12:53:40.074Z,7.77
2018-01-29T12:54:40.148Z,7.78
2018-01-29T12:55:39.920Z,7.77
2018-01-29T12:56:39.914Z,7.79
2018-01-29T12:57:39.791Z,7.77
2018-01-29T12:58:39.934Z,7.78
2018-01-29T12:59:40.159Z,7.78
2018-01-29T13:00:39.995Z,7.8
2018-01-29T13:01:39.824Z,7.81
2018-01-29T13:02:39.993Z,7.81
2018-01-29T13:03:40.131Z,7.82
2018-01-29T13:04:40.351Z,7.8
2018-01-29T13:05:40.063Z,7.8
2018-01-29T13:06:39.896Z,7.8
2018-01-29T13:07:40.154Z,7.8
2018-01-29T13:08:40.209Z,7.79
2018-01-29T13:09:40.270Z,7.79
2018-01-29T13:10:40.359Z,7.79
2018-01-29T13:11:40.082Z,7.79
2018-01-29T13:12:39.961Z,7.8
2018-01-29T13:13:39.937Z,7.81
2018-01-29T13:14:39.932Z,7.78
2018-01-29T13:15:40.288Z,7.79
2018-01-29T13:16:40.050Z,7.81
2018-01-29T13:17:40.174Z,7.81
2018-01-29T13:18:39.936Z,7.83
2018-01-29T13:19:39.943Z,7.81
2018-01-29T13:20:40.366Z,7.83
2018-01-29T13:21:40.183Z,7.82
2018-01-29T13:22:40.192Z,7.82
2018-01-29T13:23:40.114Z,7.81
2018-01-29T13:24:40.090Z,7.81
2018-01-29T13:25:40.147Z,7.8
2018-01-29T13:26:39.922Z,7.8
2018-01-29T13:27:40.045Z,7.81
2018-01-29T13:28:39.853Z,7.83
2018-01-29T13:29:40.346Z,7.83
2018-01-29T13:30:39.949Z,7.83